Time;durP1;ratioP1;P1;durP2;ratioP2;P2;SDS_P1;SDS_P2;PMS_P1;PMS_P2;Temp;Humidity;BMP_temperature;BMP_pressure;BME280_temperature;BME280_humidity;BME280_pressure;Samples;Min_cycle;Max_cycle;Signal;HPM_P1;HPM_P2
2022/10/06 00:02:03;;;;;;;;;;;;;;;;;;5052708;28;20034;-77
2022/10/06 00:04:29;;;;;;;;;;;;;;;;;;5054874;28;20387;-77
2022/10/06 00:06:56;;;;;;;;;;;;;;;;;;5036776;28;20003;-77
2022/10/06 00:09:22;;;;;;;;;;;;;;;;;;5054645;28;20376;-77
2022/10/06 00:11:48;;;;;;;;;;;;;;;;;;5054585;28;19911;-77
2022/10/06 00:14:14;;;;;;;;;;;;;;;;;;5054621;28;19905;-78
2022/10/06 00:16:40;;;;;;;;;;;;;;;;;;5053866;28;20299;-77
2022/10/06 00:19:05;;;;;;;;;;;;;;;;;;5054506;28;20462;-77
2022/10/06 00:21:31;;;;;;;;;;;;;;;;;;5054418;28;19917;-77
2022/10/06 00:23:57;;;;;;;;;;;;;;;;;;5054803;28;19905;-77
2022/10/06 00:26:23;;;;;;;;;;;;;;;;;;5054306;28;19905;-77
2022/10/06 00:28:49;;;;;;;;;;;;;;;;;;5054393;28;20274;-77
2022/10/06 00:31:15;;;;;;;;;;;;;;;;;;5054356;28;20381;-77
2022/10/06 00:33:41;;;;;;;;;;;;;;;;;;5054363;28;19904;-77
2022/10/06 00:36:07;;;;;;;;;;;;;;;;;;5054115;28;19974;-77
2022/10/06 00:38:33;;;;;;;;;;;;;;;;;;5054246;28;20286;-77
2022/10/06 00:40:59;;;;;;;;;;;;;;;;;;5054078;28;19959;-77
2022/10/06 00:43:25;;;;;;;;;;;;;;;;;;5054009;28;19905;-77
2022/10/06 00:45:51;;;;;;;;;;;;;;;;;;5054015;28;19908;-77
2022/10/06 00:48:17;;;;;;;;;;;;;;;;;;5054033;28;19995;-77
2022/10/06 00:50:43;;;;;;;;;;;;;;;;;;5054000;28;19928;-77
2022/10/06 00:53:08;;;;;;;;;;;;;;;;;;5054078;28;19999;-77
2022/10/06 00:55:34;;;;;;;;;;;;;;;;;;5053862;28;19908;-77
2022/10/06 00:58:00;;;;;;;;;;;;;;;;;;5054218;28;19916;-77
2022/10/06 01:00:26;;;;;;;;;;;;;;;;;;5053728;28;19911;-78
2022/10/06 01:02:52;;;;;;;;;;;;;;;;;;5053847;28;20004;-77
2022/10/06 01:05:18;;;;;;;;;;;;;;;;;;5053718;28;19904;-77
2022/10/06 01:07:44;;;;;;;;;;;;;;;;;;5053898;28;19959;-77
2022/10/06 01:10:10;;;;;;;;;;;;;;;;;;5053539;28;19921;-77
2022/10/06 01:12:36;;;;;;;;;;;;;;;;;;5053707;28;19909;-77
2022/10/06 01:15:02;;;;;;;;;;;;;;;;;;5053852;28;20322;-77
2022/10/06 01:17:28;;;;;;;;;;;;;;;;;;5053921;28;20359;-77
2022/10/06 01:19:54;;;;;;;;;;;;;;;;;;5053784;28;19909;-77
2022/10/06 01:22:21;;;;;;;;;;;;;;;;;;5053503;28;20390;-77
2022/10/06 01:24:47;;;;;;;;;;;;;;;;;;5053612;28;19905;-77
2022/10/06 01:27:12;;;;;;;;;;;;;;;;;;5053616;28;19904;-77
2022/10/06 01:29:38;;;;;;;;;;;;;;;;;;5057130;28;20271;-77
2022/10/06 01:32:04;;;;;;;;;;;;;;;;;;5057773;28;20386;-77
2022/10/06 01:34:30;;;;;;;;;;;;;;;;;;5057601;28;19951;-77
2022/10/06 01:36:56;;;;;;;;;;;;;;;;;;5057620;28;19927;-77
2022/10/06 01:39:22;;;;;;;;;;;;;;;;;;5057499;28;19916;-77
2022/10/06 01:41:48;;;;;;;;;;;;;;;;;;5057388;28;19912;-77
2022/10/06 01:44:14;;;;;;;;;;;;;;;;;;5057270;28;19951;-77
2022/10/06 01:46:40;;;;;;;;;;;;;;;;;;5057294;28;19909;-77
2022/10/06 01:49:06;;;;;;;;;;;;;;;;;;5057373;28;19928;-77
2022/10/06 01:51:32;;;;;;;;;;;;;;;;;;5057254;28;19927;-77
2022/10/06 01:53:58;;;;;;;;;;;;;;;;;;5039356;28;20312;-78
2022/10/06 01:56:24;;;;;;;;;;;;;;;;;;5057320;28;20367;-78
2022/10/06 01:58:50;;;;;;;;;;;;;;;;;;5057186;28;19936;-78
2022/10/06 02:01:16;;;;;;;;;;;;;;;;;;5057037;28;19977;-78
2022/10/06 02:03:42;;;;;;;;;;;;;;;;;;5057038;28;19905;-77
2022/10/06 02:06:08;;;;;;;;;;;;;;;;;;5056945;28;19901;-78
2022/10/06 02:08:34;;;;;;;;;;;;;;;;;;5056936;28;20274;-77
2022/10/06 02:11:00;;;;;;;;;;;;;;;;;;5056968;28;20026;-77
2022/10/06 02:13:26;;;;;;;;;;;;;;;;;;5057002;28;20309;-78
2022/10/06 02:15:52;;;;;;;;;;;;;;;;;;5056912;28;19905;-77
2022/10/06 02:18:18;;;;;;;;;;;;;;;;;;5056870;28;20266;-77
2022/10/06 02:20:44;;;;;;;;;;;;;;;;;;5056593;28;20332;-77
2022/10/06 02:23:10;;;;;;;;;;;;;;;;;;5056687;28;20421;-77
2022/10/06 02:25:36;;;;;;;;;;;;;;;;;;5056725;28;19962;-77
2022/10/06 02:28:02;;;;;;;;;;;;;;;;;;5056620;28;19904;-77
2022/10/06 02:30:28;;;;;;;;;;;;;;;;;;5056567;28;19905;-77
2022/10/06 02:32:54;;;;;;;;;;;;;;;;;;5056539;28;19911;-77
2022/10/06 02:35:20;;;;;;;;;;;;;;;;;;5056377;28;20267;-77
2022/10/06 02:37:46;;;;;;;;;;;;;;;;;;5056422;28;20011;-77
2022/10/06 02:40:12;;;;;;;;;;;;;;;;;;5055930;28;19959;-77
2022/10/06 02:42:38;;;;;;;;;;;;;;;;;;5056431;28;20291;-77
2022/10/06 02:45:05;;;;;;;;;;;;;;;;;;5056295;28;20355;-77
2022/10/06 02:47:31;;;;;;;;;;;;;;;;;;5056271;28;19966;-77
2022/10/06 02:49:57;;;;;;;;;;;;;;;;;;5056230;28;19966;-77
2022/10/06 02:52:23;;;;;;;;;;;;;;;;;;5056177;28;19915;-77
2022/10/06 02:54:50;;;;;;;;;;;;;;;;;;5055988;28;20356;-77
2022/10/06 02:57:15;;;;;;;;;;;;;;;;;;5056076;28;19905;-77
2022/10/06 02:59:41;;;;;;;;;;;;;;;;;;5056081;28;19967;-77
2022/10/06 03:02:07;;;;;;;;;;;;;;;;;;5055888;28;19912;-77
2022/10/06 03:04:33;;;;;;;;;;;;;;;;;;5055901;28;20000;-77
2022/10/06 03:06:59;;;;;;;;;;;;;;;;;;5055936;28;19948;-78
2022/10/06 03:09:25;;;;;;;;;;;;;;;;;;5055805;28;20371;-77
2022/10/06 03:11:51;;;;;;;;;;;;;;;;;;5055765;28;19905;-77
2022/10/06 03:14:17;;;;;;;;;;;;;;;;;;5055745;28;20264;-77
2022/10/06 03:16:43;;;;;;;;;;;;;;;;;;5055696;28;20381;-77
2022/10/06 03:19:09;;;;;;;;;;;;;;;;;;5055731;28;20413;-77
2022/10/06 03:21:35;;;;;;;;;;;;;;;;;;5055520;28;20379;-77
2022/10/06 03:24:01;;;;;;;;;;;;;;;;;;5055664;28;19908;-77
2022/10/06 03:26:27;;;;;;;;;;;;;;;;;;5055751;28;19905;-77
2022/10/06 03:28:53;;;;;;;;;;;;;;;;;;5055585;28;19905;-77
2022/10/06 03:31:18;;;;;;;;;;;;;;;;;;5055427;28;20326;-77
2022/10/06 03:33:44;;;;;;;;;;;;;;;;;;5055405;28;20284;-77
2022/10/06 03:36:10;;;;;;;;;;;;;;;;;;5055303;28;20340;-77
2022/10/06 03:38:36;;;;;;;;;;;;;;;;;;5055400;28;19934;-77
2022/10/06 03:41:02;;;;;;;;;;;;;;;;;;5055002;28;19913;-77
2022/10/06 03:43:28;;;;;;;;;;;;;;;;;;5055463;28;19912;-77
2022/10/06 03:45:55;;;;;;;;;;;;;;;;;;5055245;28;19901;-77
2022/10/06 03:48:21;;;;;;;;;;;;;;;;;;5054640;28;19970;-77
2022/10/06 03:50:47;;;;;;;;;;;;;;;;;;5036183;28;19904;-77
2022/10/06 03:53:13;;;;;;;;;;;;;;;;;;5054940;28;19907;-77
2022/10/06 03:55:39;;;;;;;;;;;;;;;;;;5054922;28;19912;-77
2022/10/06 03:58:05;;;;;;;;;;;;;;;;;;5054639;28;19908;-77
2022/10/06 04:00:31;;;;;;;;;;;;;;;;;;5054508;28;19905;-77
2022/10/06 04:02:56;;;;;;;;;;;;;;;;;;5054919;28;20354;-77
2022/10/06 04:05:22;;;;;;;;;;;;;;;;;;5054814;28;20445;-77
2022/10/06 04:07:48;;;;;;;;;;;;;;;;;;5054886;28;19963;-77
2022/10/06 04:10:14;;;;;;;;;;;;;;;;;;5054479;28;20256;-77
2022/10/06 04:12:40;;;;;;;;;;;;;;;;;;5036761;28;20418;-77
2022/10/06 04:15:06;;;;;;;;;;;;;;;;;;5054535;28;19952;-78
2022/10/06 04:17:32;;;;;;;;;;;;;;;;;;5054636;28;20306;-78
2022/10/06 04:19:58;;;;;;;;;;;;;;;;;;5054558;28;20280;-77
2022/10/06 04:22:24;;;;;;;;;;;;;;;;;;5054493;28;20431;-77
2022/10/06 04:24:50;;;;;;;;;;;;;;;;;;5054122;28;20359;-79
2022/10/06 04:27:28;;;;;;;;;;;;;;;;;;5054628;28;20318;-79
2022/10/06 04:29:55;;;;;;;;;;;;;;;;;;5053306;28;19995;-79
2022/10/06 04:32:21;;;;;;;;;;;;;;;;;;5036778;28;20419;-80
2022/10/06 04:34:47;;;;;;;;;;;;;;;;;;5036109;28;19991;-79
2022/10/06 04:37:13;;;;;;;;;;;;;;;;;;5054157;28;20343;-79
2022/10/06 04:39:38;;;;;;;;;;;;;;;;;;5036262;28;19913;-79
2022/10/06 04:42:05;;;;;;;;;;;;;;;;;;5035908;28;19913;-79
2022/10/06 04:44:31;;;;;;;;;;;;;;;;;;5054018;28;19905;-78
2022/10/06 04:46:59;;;;;;;;;;;;;;;;;;5053889;28;19905;-80
2022/10/06 04:49:25;;;;;;;;;;;;;;;;;;5054033;28;19904;-79
2022/10/06 04:51:51;;;;;;;;;;;;;;;;;;5053856;28;20003;-78
2022/10/06 04:54:18;;;;;;;;;;;;;;;;;;5053922;28;19904;-79
2022/10/06 04:56:43;;;;;;;;;;;;;;;;;;5053165;28;20319;-78
2022/10/06 04:59:09;;;;;;;;;;;;;;;;;;5035246;28;20116;-79
2022/10/06 05:01:35;;;;;;;;;;;;;;;;;;5053483;28;19917;-79
2022/10/06 05:04:01;;;;;;;;;;;;;;;;;;5053162;28;19912;-78
2022/10/06 05:06:27;;;;;;;;;;;;;;;;;;5050637;28;19915;-79
2022/10/06 05:08:53;;;;;;;;;;;;;;;;;;5050337;28;19999;-79
2022/10/06 05:11:19;;;;;;;;;;;;;;;;;;5053665;28;19958;-78
2022/10/06 05:13:45;;;;;;;;;;;;;;;;;;5053082;28;19928;-78
2022/10/06 05:16:11;;;;;;;;;;;;;;;;;;5053383;28;19958;-78
2022/10/06 05:18:37;;;;;;;;;;;;;;;;;;5053834;28;20320;-78
2022/10/06 05:21:03;;;;;;;;;;;;;;;;;;5053379;28;19923;-75
2022/10/06 05:23:29;;;;;;;;;;;;;;;;;;5034051;28;19916;-75
2022/10/06 05:25:55;;;;;;;;;;;;;;;;;;5052414;28;19905;-78
2022/10/06 05:28:21;;;;;;;;;;;;;;;;;;5052598;28;19905;-79
2022/10/06 05:30:47;;;;;;;;;;;;;;;;;;5052718;28;19912;-77
2022/10/06 05:33:13;;;;;;;;;;;;;;;;;;5051138;28;20430;-76
2022/10/06 05:35:39;;;;;;;;;;;;;;;;;;5051256;28;19904;-75
2022/10/06 05:38:05;;;;;;;;;;;;;;;;;;5047570;28;20071;-73
2022/10/06 05:40:31;;;;;;;;;;;;;;;;;;5039631;28;20008;-74
2022/10/06 05:42:57;;;;;;;;;;;;;;;;;;5037455;28;20334;-73
2022/10/06 05:45:23;;;;;;;;;;;;;;;;;;5050112;28;19914;-78
2022/10/06 05:47:48;;;;;;;;;;;;;;;;;;5050229;28;19988;-79
2022/10/06 05:50:14;;;;;;;;;;;;;;;;;;5050233;28;19905;-79
2022/10/06 05:52:41;;;;;;;;;;;;;;;;;;5031838;28;19919;-76
2022/10/06 05:55:07;;;;;;;;;;;;;;;;;;5050310;28;19915;-81
2022/10/06 05:57:33;;;;;;;;;;;;;;;;;;5029978;28;20011;-80
2022/10/06 05:59:59;;;;;;;;;;;;;;;;;;5046563;28;20407;-76
2022/10/06 06:02:25;;;;;;;;;;;;;;;;;;5050406;28;20286;-78
2022/10/06 06:04:51;;;;;;;;;;;;;;;;;;5050675;28;19905;-78
2022/10/06 06:07:17;;;;;;;;;;;;;;;;;;5048053;28;20631;-77
2022/10/06 06:09:43;;;;;;;;;;;;;;;;;;5045765;28;19917;-78
2022/10/06 06:12:09;;;;;;;;;;;;;;;;;;5047881;28;19957;-77
2022/10/06 06:17:19;;;;;;;;;;;;;;;;;;5050672;28;19916;-80
2022/10/06 06:19:45;;;;;;;;;;;;;;;;;;5053177;28;19908;-81
2022/10/06 06:22:11;;;;;;;;;;;;;;;;;;5053273;28;20367;-80
2022/10/06 06:24:37;;;;;;;;;;;;;;;;;;5050256;28;19915;-81
2022/10/06 06:27:03;;;;;;;;;;;;;;;;;;5052557;28;19909;-80
2022/10/06 06:29:29;;;;;;;;;;;;;;;;;;5053215;28;19908;-79
2022/10/06 06:31:55;;;;;;;;;;;;;;;;;;5052277;28;20263;-80
2022/10/06 06:34:21;;;;;;;;;;;;;;;;;;5053038;28;20267;-79
2022/10/06 06:36:52;;;;;;;;;;;;;;;;;;5053951;28;20001;-79
2022/10/06 06:39:18;;;;;;;;;;;;;;;;;;5053900;28;19915;-80
2022/10/06 06:41:45;;;;;;;;;;;;;;;;;;5032055;28;20015;-77
2022/10/06 06:44:10;;;;;;;;;;;;;;;;;;5024169;28;19905;-77
2022/10/06 06:46:36;;;;;;;;;;;;;;;;;;5044186;28;19928;-77
2022/10/06 06:49:05;;;;;;;;;;;;;;;;;;5033658;28;19905;-78
2022/10/06 06:51:32;;;;;;;;;;;;;;;;;;5033697;28;19905;-77
2022/10/06 06:54:00;;;;;;;;;;;;;;;;;;5039163;28;19912;-77
2022/10/06 06:56:26;;;;;;;;;;;;;;;;;;5051450;28;20394;-77
2022/10/06 06:58:52;;;;;;;;;;;;;;;;;;5049660;28;19909;-77
2022/10/06 07:01:18;;;;;;;;;;;;;;;;;;5047043;28;20367;-77
2022/10/06 07:03:44;;;;;;;;;;;;;;;;;;5038890;28;20451;-77
2022/10/06 07:06:10;;;;;;;;;;;;;;;;;;5043215;28;19909;-77
2022/10/06 07:08:36;;;;;;;;;;;;;;;;;;5052381;28;20371;-77
2022/10/06 07:11:02;;;;;;;;;;;;;;;;;;5051075;28;19912;-78
2022/10/06 07:13:28;;;;;;;;;;;;;;;;;;5050361;28;20359;-78
2022/10/06 07:26:53;;;;;;;;;;;;;;;;;;5047195;28;20596;-77
2022/10/06 07:29:19;;;;;;;;;;;;;;;;;;5045425;28;19920;-77
2022/10/06 07:31:45;;;;;;;;;;;;;;;;;;5049188;28;20287;-78
2022/10/06 07:34:11;;;;;;;;;;;;;;;;;;5052175;28;19911;-78
2022/10/06 07:36:37;;;;;;;;;;;;;;;;;;5047515;28;19916;-78
2022/10/06 07:39:03;;;;;;;;;;;;;;;;;;5051017;28;20474;-76
2022/10/06 07:41:29;;;;;;;;;;;;;;;;;;5051176;28;20026;-78
2022/10/06 07:43:55;;;;;;;;;;;;;;;;;;5050745;28;20731;-78
2022/10/06 07:46:21;;;;;;;;;;;;;;;;;;5049337;28;19943;-76
2022/10/06 07:48:47;;;;;;;;;;;;;;;;;;5040254;28;20007;-78
2022/10/06 07:51:13;;;;;;;;;;;;;;;;;;5036928;28;19909;-76
2022/10/06 07:53:40;;;;;;;;;;;;;;;;;;5042620;28;19915;-79
2022/10/06 07:56:05;;;;;;;;;;;;;;;;;;5045585;28;19978;-75
2022/10/06 07:58:31;;;;;;;;;;;;;;;;;;5051780;28;20367;-75
2022/10/06 08:00:57;;;;;;;;;;;;;;;;;;5052147;28;19920;-76
2022/10/06 08:03:24;;;;;;;;;;;;;;;;;;5034039;28;20367;-77
2022/10/06 08:05:49;;;;;;;;;;;;;;;;;;5051032;28;19955;-78
2022/10/06 08:08:15;;;;;;;;;;;;;;;;;;5050281;28;20372;-77
2022/10/06 08:10:41;;;;;;;;;;;;;;;;;;5049972;28;20514;-75
2022/10/06 08:13:07;;;;;;;;;;;;;;;;;;5052008;28;20003;-75
2022/10/06 08:15:33;;;;;;;;;;;;;;;;;;5051685;28;19948;-75
2022/10/06 08:17:59;;;;;;;;;;;;;;;;;;5051081;28;19908;-74
2022/10/06 08:20:26;;;;;;;;;;;;;;;;;;5051979;28;19916;-74
2022/10/06 08:22:53;;;;;;;;;;;;;;;;;;5052254;28;20027;-74
2022/10/06 08:25:19;;;;;;;;;;;;;;;;;;5051357;28;20334;-77
2022/10/06 08:27:45;;;;;;;;;;;;;;;;;;5051684;28;20270;-74
2022/10/06 08:30:11;;;;;;;;;;;;;;;;;;5051286;28;20355;-79
2022/10/06 08:32:37;;;;;;;;;;;;;;;;;;5033781;28;20291;-80
2022/10/06 08:35:03;;;;;;;;;;;;;;;;;;5051461;28;19909;-78
2022/10/06 08:37:29;;;;;;;;;;;;;;;;;;5051256;28;19905;-81
2022/10/06 08:39:55;;;;;;;;;;;;;;;;;;5050578;28;19916;-79
2022/10/06 08:42:21;;;;;;;;;;;;;;;;;;5051880;28;19917;-82
2022/10/06 08:44:47;;;;;;;;;;;;;;;;;;5051555;28;19924;-80
2022/10/06 08:47:13;;;;;;;;;;;;;;;;;;5043532;28;19999;-80
2022/10/06 08:49:39;;;;;;;;;;;;;;;;;;5040130;28;20016;-84
2022/10/06 08:52:05;;;;;;;;;;;;;;;;;;5047553;28;19920;-80
2022/10/06 08:54:31;;;;;;;;;;;;;;;;;;5050265;28;19908;-80
2022/10/06 08:56:57;;;;;;;;;;;;;;;;;;5048245;28;19916;-77
2022/10/06 08:59:23;;;;;;;;;;;;;;;;;;5036343;28;19913;-76
2022/10/06 09:01:50;;;;;;;;;;;;;;;;;;5031245;28;19944;-79
2022/10/06 09:04:16;;;;;;;;;;;;;;;;;;5044399;28;19913;-80
2022/10/06 09:06:41;;;;;;;;;;;;;;;;;;5049711;28;19936;-75
2022/10/06 09:09:07;;;;;;;;;;;;;;;;;;5049686;28;19978;-78
2022/10/06 09:11:33;;;;;;;;;;;;;;;;;;5051524;28;20019;-79
2022/10/06 09:13:59;;;;;;;;;;;;;;;;;;5044959;28;19955;-76
2022/10/06 09:16:27;;;;;;;;;;;;;;;;;;5050524;28;19913;-77
2022/10/06 09:18:54;;;;;;;;;;;;;;;;;;5049586;28;19979;-77
2022/10/06 09:21:22;;;;;;;;;;;;;;;;;;5041528;28;19932;-77
2022/10/06 09:23:48;;;;;;;;;;;;;;;;;;5051170;28;20006;-76
2022/10/06 09:26:14;;;;;;;;;;;;;;;;;;5050929;28;19927;-76
2022/10/06 09:28:40;;;;;;;;;;;;;;;;;;5051224;28;20364;-76
2022/10/06 09:31:06;;;;;;;;;;;;;;;;;;5051177;28;19912;-77
2022/10/06 09:33:31;;;;;;;;;;;;;;;;;;5051088;28;20277;-76
2022/10/06 09:36:05;;;;;;;;;;;;;;;;;;5049684;28;20005;-76
2022/10/06 09:38:33;;;;;;;;;;;;;;;;;;5051019;28;19908;-78
2022/10/06 09:40:59;;;;;;;;;;;;;;;;;;5050937;28;19971;-77
2022/10/06 09:43:25;;;;;;;;;;;;;;;;;;5050424;28;19908;-76
2022/10/06 09:45:51;;;;;;;;;;;;;;;;;;5049223;28;20011;-77
2022/10/06 09:48:19;;;;;;;;;;;;;;;;;;5031911;28;19915;-76
2022/10/06 09:50:45;;;;;;;;;;;;;;;;;;5052837;28;19947;-76
2022/10/06 09:53:11;;;;;;;;;;;;;;;;;;5045237;28;19944;-76
2022/10/06 09:55:38;;;;;;;;;;;;;;;;;;5047881;28;20357;-74
2022/10/06 09:58:04;;;;;;;;;;;;;;;;;;5053654;28;19996;-75
2022/10/06 10:00:30;;;;;;;;;;;;;;;;;;5034492;28;19920;-76
2022/10/06 10:02:56;;;;;;;;;;;;;;;;;;5046411;28;19917;-77
2022/10/06 10:05:22;;;;;;;;;;;;;;;;;;5046024;28;19959;-81
2022/10/06 10:07:52;;;;;;;;;;;;;;;;;;5045542;28;19912;-80
2022/10/06 10:10:19;;;;;;;;;;;;;;;;;;5052709;28;19970;-76
2022/10/06 10:12:45;;;;;;;;;;;;;;;;;;5053191;28;19921;-77
2022/10/06 10:15:13;;;;;;;;;;;;;;;;;;5046846;28;20024;-76
2022/10/06 10:17:43;;;;;;;;;;;;;;;;;;5049899;28;19915;-78
2022/10/06 10:20:09;;;;;;;;;;;;;;;;;;5046380;28;20004;-77
2022/10/06 10:22:38;;;;;;;;;;;;;;;;;;5052149;28;19925;-77
2022/10/06 10:25:04;;;;;;;;;;;;;;;;;;5036083;28;19909;-77
2022/10/06 10:27:30;;;;;;;;;;;;;;;;;;5053903;28;19908;-76
2022/10/06 10:30:00;;;;;;;;;;;;;;;;;;5046882;28;19985;-76
2022/10/06 10:32:27;;;;;;;;;;;;;;;;;;5031438;28;19909;-78
2022/10/06 10:34:53;;;;;;;;;;;;;;;;;;5041365;28;19909;-79
2022/10/06 10:37:19;;;;;;;;;;;;;;;;;;5041794;28;19939;-78
2022/10/06 10:39:48;;;;;;;;;;;;;;;;;;5035014;28;20302;-78
2022/10/06 10:42:15;;;;;;;;;;;;;;;;;;5049302;28;20050;-76
2022/10/06 10:44:41;;;;;;;;;;;;;;;;;;5051223;28;20015;-76
2022/10/06 10:47:06;;;;;;;;;;;;;;;;;;5051953;28;20003;-76
2022/10/06 10:49:32;;;;;;;;;;;;;;;;;;5051141;28;20474;-76
2022/10/06 10:51:58;;;;;;;;;;;;;;;;;;5043852;28;20275;-76
2022/10/06 10:54:25;;;;;;;;;;;;;;;;;;5053525;28;20006;-76
2022/10/06 10:56:51;;;;;;;;;;;;;;;;;;5053487;28;20490;-76
2022/10/06 10:59:17;;;;;;;;;;;;;;;;;;5053255;28;19974;-76
2022/10/06 11:01:43;;;;;;;;;;;;;;;;;;5052668;28;19978;-76
2022/10/06 11:04:09;;;;;;;;;;;;;;;;;;5053648;28;19908;-76
2022/10/06 11:06:35;;;;;;;;;;;;;;;;;;5053066;28;19916;-77
2022/10/06 11:09:01;;;;;;;;;;;;;;;;;;5053135;28;19921;-76
2022/10/06 11:11:27;;;;;;;;;;;;;;;;;;5052231;28;19932;-74
2022/10/06 11:13:53;;;;;;;;;;;;;;;;;;5048749;28;20344;-75
2022/10/06 11:16:20;;;;;;;;;;;;;;;;;;5052980;28;20364;-79
2022/10/06 11:18:46;;;;;;;;;;;;;;;;;;5045453;28;19949;-75
2022/10/06 11:21:12;;;;;;;;;;;;;;;;;;5052325;28;20010;-76
2022/10/06 11:23:39;;;;;;;;;;;;;;;;;;5050064;28;19913;-77
2022/10/06 11:26:17;;;;;;;;;;;;;;;;;;5043976;28;20268;-79
2022/10/06 11:28:44;;;;;;;;;;;;;;;;;;5046575;28;20367;-77
2022/10/06 11:31:14;;;;;;;;;;;;;;;;;;5024174;28;19912;-78
2022/10/06 11:33:41;;;;;;;;;;;;;;;;;;5038033;28;19913;-79
2022/10/06 11:36:07;;;;;;;;;;;;;;;;;;5033895;28;19905;-78
2022/10/06 11:38:33;;;;;;;;;;;;;;;;;;5033816;28;19912;-77
2022/10/06 11:40:59;;;;;;;;;;;;;;;;;;5048385;28;19913;-75
2022/10/06 11:43:25;;;;;;;;;;;;;;;;;;5053859;28;19995;-77
2022/10/06 11:45:51;;;;;;;;;;;;;;;;;;5034188;28;19931;-78
2022/10/06 11:48:17;;;;;;;;;;;;;;;;;;5052069;28;19930;-77
2022/10/06 11:50:45;;;;;;;;;;;;;;;;;;5052337;28;20354;-76
2022/10/06 11:53:11;;;;;;;;;;;;;;;;;;5051520;28;19909;-76
2022/10/06 11:55:37;;;;;;;;;;;;;;;;;;5051292;28;19954;-77
2022/10/06 11:58:03;;;;;;;;;;;;;;;;;;5043489;28;19913;-77
2022/10/06 12:00:29;;;;;;;;;;;;;;;;;;5050200;28;19909;-76
2022/10/06 12:02:55;;;;;;;;;;;;;;;;;;5046196;28;19920;-75
2022/10/06 12:05:21;;;;;;;;;;;;;;;;;;5053150;28;19943;-75
2022/10/06 12:07:47;;;;;;;;;;;;;;;;;;5044062;28;19908;-76
2022/10/06 12:10:13;;;;;;;;;;;;;;;;;;5043366;28;19917;-76
2022/10/06 12:12:39;;;;;;;;;;;;;;;;;;5052070;28;20327;-75
2022/10/06 12:15:05;;;;;;;;;;;;;;;;;;5048813;28;19909;-75
2022/10/06 12:17:31;;;;;;;;;;;;;;;;;;5045654;28;19913;-75
2022/10/06 12:19:57;;;;;;;;;;;;;;;;;;5050961;28;19912;-75
2022/10/06 12:22:22;;;;;;;;;;;;;;;;;;5052632;28;19924;-74
2022/10/06 12:24:48;;;;;;;;;;;;;;;;;;5043259;28;19912;-75
2022/10/06 12:27:14;;;;;;;;;;;;;;;;;;5049966;28;19971;-75
2022/10/06 12:29:40;;;;;;;;;;;;;;;;;;5047146;28;19935;-75
2022/10/06 12:32:06;;;;;;;;;;;;;;;;;;5045306;28;20260;-75
2022/10/06 12:34:32;;;;;;;;;;;;;;;;;;5027168;28;19955;-75
2022/10/06 12:36:58;;;;;;;;;;;;;;;;;;5045438;28;19916;-77
2022/10/06 12:39:24;;;;;;;;;;;;;;;;;;5046643;28;19912;-74
2022/10/06 12:41:50;;;;;;;;;;;;;;;;;;5052664;28;19999;-75
2022/10/06 12:44:16;;;;;;;;;;;;;;;;;;5051412;28;19909;-75
2022/10/06 12:46:42;;;;;;;;;;;;;;;;;;5051421;28;19909;-75
2022/10/06 12:49:11;;;;;;;;;;;;;;;;;;5044942;28;19908;-76
2022/10/06 12:51:37;;;;;;;;;;;;;;;;;;5047852;28;19908;-75
2022/10/06 12:54:03;;;;;;;;;;;;;;;;;;5048454;28;19913;-76
2022/10/06 12:56:30;;;;;;;;;;;;;;;;;;5052383;28;19911;-76
2022/10/06 12:58:56;;;;;;;;;;;;;;;;;;5052217;28;19905;-76
2022/10/06 13:01:22;;;;;;;;;;;;;;;;;;5052778;28;19980;-76
2022/10/06 13:03:48;;;;;;;;;;;;;;;;;;5052079;28;19916;-75
2022/10/06 13:06:14;;;;;;;;;;;;;;;;;;5033328;28;19995;-77
2022/10/06 13:08:40;;;;;;;;;;;;;;;;;;5052419;28;19921;-74
2022/10/06 13:11:06;;;;;;;;;;;;;;;;;;5033521;28;19918;-75
2022/10/06 13:13:32;;;;;;;;;;;;;;;;;;5050665;28;19908;-75
2022/10/06 13:15:59;;;;;;;;;;;;;;;;;;5052440;28;19904;-75
2022/10/06 13:18:25;;;;;;;;;;;;;;;;;;5052491;28;19909;-78
2022/10/06 13:20:51;;;;;;;;;;;;;;;;;;5051554;28;20362;-77
2022/10/06 13:23:17;;;;;;;;;;;;;;;;;;5053984;28;19916;-76
2022/10/06 13:25:43;;;;;;;;;;;;;;;;;;5058938;28;19967;-76
2022/10/06 13:28:09;;;;;;;;;;;;;;;;;;5040611;28;19915;-75
2022/10/06 13:30:35;;;;;;;;;;;;;;;;;;5058340;28;19908;-76
2022/10/06 13:33:01;;;;;;;;;;;;;;;;;;5059355;28;19909;-75
2022/10/06 13:35:27;;;;;;;;;;;;;;;;;;5059623;28;20058;-76
2022/10/06 13:37:52;;;;;;;;;;;;;;;;;;5058670;28;19909;-74
2022/10/06 13:40:18;;;;;;;;;;;;;;;;;;5059400;28;19932;-77
2022/10/06 13:42:50;;;;;;;;;;;;;;;;;;5058933;28;20366;-75
2022/10/06 13:45:16;;;;;;;;;;;;;;;;;;5040544;28;19912;-74
2022/10/06 13:47:42;;;;;;;;;;;;;;;;;;5059646;28;19935;-75
2022/10/06 13:50:08;;;;;;;;;;;;;;;;;;5059342;28;20006;-75
2022/10/06 13:52:34;;;;;;;;;;;;;;;;;;5059516;28;19913;-76
2022/10/06 13:55:01;;;;;;;;;;;;;;;;;;5059229;28;19908;-75
2022/10/06 13:57:27;;;;;;;;;;;;;;;;;;5058807;28;19952;-76
2022/10/06 13:59:53;;;;;;;;;;;;;;;;;;5058797;28;19962;-74
2022/10/06 14:02:18;;;;;;;;;;;;;;;;;;5059473;28;19920;-75
2022/10/06 14:04:44;;;;;;;;;;;;;;;;;;5059649;28;19905;-75
2022/10/06 14:07:10;;;;;;;;;;;;;;;;;;5058764;28;20318;-76
2022/10/06 14:09:36;;;;;;;;;;;;;;;;;;5059239;28;20323;-77
2022/10/06 14:12:02;;;;;;;;;;;;;;;;;;5059489;28;20377;-76
2022/10/06 14:14:28;;;;;;;;;;;;;;;;;;5059702;28;20352;-75
2022/10/06 14:16:54;;;;;;;;;;;;;;;;;;5060331;28;19905;-77
2022/10/06 14:19:20;;;;;;;;;;;;;;;;;;5058917;28;19912;-77
2022/10/06 14:21:47;;;;;;;;;;;;;;;;;;5059394;28;19917;-76
2022/10/06 14:24:13;;;;;;;;;;;;;;;;;;5059536;28;19904;-75
2022/10/06 14:26:38;;;;;;;;;;;;;;;;;;5059256;28;19958;-74
2022/10/06 14:29:05;;;;;;;;;;;;;;;;;;5059299;28;19905;-74
2022/10/06 14:31:32;;;;;;;;;;;;;;;;;;5059151;28;20063;-74
2022/10/06 14:33:58;;;;;;;;;;;;;;;;;;5059156;28;19904;-75
2022/10/06 14:36:26;;;;;;;;;;;;;;;;;;5055213;28;19966;-77
2022/10/06 14:38:52;;;;;;;;;;;;;;;;;;5056203;28;20083;-75
2022/10/06 14:41:26;;;;;;;;;;;;;;;;;;5055903;28;19909;-74
2022/10/06 14:43:52;;;;;;;;;;;;;;;;;;5056232;28;19958;-73
2022/10/06 14:46:18;;;;;;;;;;;;;;;;;;5055808;28;20275;-75
2022/10/06 14:48:44;;;;;;;;;;;;;;;;;;5055925;28;20319;-76
2022/10/06 14:51:10;;;;;;;;;;;;;;;;;;5056013;28;20335;-76
2022/10/06 14:53:37;;;;;;;;;;;;;;;;;;5055900;28;20000;-76
2022/10/06 14:56:04;;;;;;;;;;;;;;;;;;5055861;28;19912;-76
2022/10/06 14:58:30;;;;;;;;;;;;;;;;;;5055600;28;19981;-74
2022/10/06 15:00:56;;;;;;;;;;;;;;;;;;5055598;28;19904;-75
2022/10/06 15:03:22;;;;;;;;;;;;;;;;;;5055446;28;20325;-75
2022/10/06 15:08:33;;;;;;;;;;;;;;;;;;5055557;28;20296;-74
2022/10/06 15:10:59;;;;;;;;;;;;;;;;;;5055235;28;19905;-76
2022/10/06 15:13:24;;;;;;;;;;;;;;;;;;5055318;28;19911;-76
2022/10/06 15:15:51;;;;;;;;;;;;;;;;;;5055751;28;19963;-75
2022/10/06 15:18:17;;;;;;;;;;;;;;;;;;5055553;28;19926;-75
2022/10/06 15:20:43;;;;;;;;;;;;;;;;;;5055557;28;19975;-75
2022/10/06 15:23:09;;;;;;;;;;;;;;;;;;5055156;28;19916;-75
2022/10/06 15:31:16;;;;;;;;;;;;;;;;;;5055194;28;19912;-77
2022/10/06 15:33:42;;;;;;;;;;;;;;;;;;5055169;28;20477;-74
2022/10/06 15:36:08;;;;;;;;;;;;;;;;;;5054980;28;19999;-76
2022/10/06 15:38:35;;;;;;;;;;;;;;;;;;5055058;28;20371;-75
2022/10/06 15:41:03;;;;;;;;;;;;;;;;;;5054601;28;19908;-76
2022/10/06 15:43:53;;;;;;;;;;;;;;;;;;5054812;28;20348;-76
2022/10/06 15:46:14;;;;;;;;;;;;;;;;;;5053739;28;19919;-75
2022/10/06 15:48:41;;;;;;;;;;;;;;;;;;5054060;28;19913;-75
2022/10/06 15:51:07;;;;;;;;;;;;;;;;;;5054722;28;19901;-75
2022/10/06 15:53:33;;;;;;;;;;;;;;;;;;5054658;28;19911;-75
2022/10/06 15:55:59;;;;;;;;;;;;;;;;;;5054333;28;19963;-74
2022/10/06 15:58:25;;;;;;;;;;;;;;;;;;5054492;28;19908;-76
2022/10/06 16:00:51;;;;;;;;;;;;;;;;;;5054314;28;19912;-75
2022/10/06 16:03:34;;;;;;;;;;;;;;;;;;5054396;28;19915;-76
2022/10/06 16:06:02;;;;;;;;;;;;;;;;;;5053133;28;20367;-75
2022/10/06 16:08:28;;;;;;;;;;;;;;;;;;5052053;28;19911;-76
2022/10/06 16:10:54;;;;;;;;;;;;;;;;;;5054090;28;19916;-75
2022/10/06 16:13:22;;;;;;;;;;;;;;;;;;5053369;28;19913;-76
2022/10/06 16:15:53;;;;;;;;;;;;;;;;;;5036280;28;19948;-77
2022/10/06 16:18:19;;;;;;;;;;;;;;;;;;5054305;28;19995;-74
2022/10/06 16:20:44;;;;;;;;;;;;;;;;;;5054450;28;20326;-75
2022/10/06 16:23:10;;;;;;;;;;;;;;;;;;5054077;28;20418;-76
2022/10/06 16:25:36;;;;;;;;;;;;;;;;;;5054108;28;19905;-74
2022/10/06 16:28:02;;;;;;;;;;;;;;;;;;5053729;28;19909;-75
2022/10/06 16:30:31;;;;;;;;;;;;;;;;;;5053702;28;19909;-76
2022/10/06 16:32:58;;;;;;;;;;;;;;;;;;5036023;28;19967;-75
2022/10/06 16:35:24;;;;;;;;;;;;;;;;;;5053797;28;19909;-76
2022/10/06 16:37:50;;;;;;;;;;;;;;;;;;5054120;28;20317;-79
2022/10/06 16:40:16;;;;;;;;;;;;;;;;;;5035530;28;19991;-75
2022/10/06 16:42:43;;;;;;;;;;;;;;;;;;5053964;28;19964;-76
2022/10/06 16:45:09;;;;;;;;;;;;;;;;;;5053006;28;20356;-76
2022/10/06 16:47:35;;;;;;;;;;;;;;;;;;5052537;28;19908;-75
2022/10/06 16:50:01;;;;;;;;;;;;;;;;;;5052624;28;19952;-76
2022/10/06 16:52:27;;;;;;;;;;;;;;;;;;5053156;28;19916;-77
2022/10/06 16:54:54;;;;;;;;;;;;;;;;;;5053679;28;19908;-76
2022/10/06 16:57:20;;;;;;;;;;;;;;;;;;5053261;28;19912;-77
2022/10/06 16:59:46;;;;;;;;;;;;;;;;;;5053385;28;20360;-76
2022/10/06 17:02:12;;;;;;;;;;;;;;;;;;5053227;28;20419;-76